Time;durP1;ratioP1;P1;durP2;ratioP2;P2;SDS_P1;SDS_P2;PMS_P1;PMS_P2;Temp;Humidity;BMP_temperature;BMP_pressure;BME280_temperature;BME280_humidity;BME280_pressure;Samples;Min_cycle;Max_cycle;Signal;HPM_P1;HPM_P2
2022/09/11 00:00:10;;;;;;;16.50;14.90;;;;;;;15.09;100.00;101648.38;5288887;28;20029;-70
2022/09/11 00:02:41;;;;;;;15.68;14.18;;;;;;;15.04;100.00;101659.34;5285587;28;20059;-70
2022/09/11 00:05:13;;;;;;;16.80;15.07;;;;;;;15.07;100.00;101653.78;5288139;28;20023;-71
2022/09/11 00:07:46;;;;;;;15.93;14.30;;;;;;;15.04;100.00;101658.53;5290529;28;20032;-70
2022/09/11 00:10:17;;;;;;;16.05;14.55;;;;;;;14.98;100.00;101654.63;5290622;28;20436;-71
2022/09/11 00:12:49;;;;;;;18.10;15.43;;;;;;;14.97;100.00;101655.59;5287517;28;20028;-70
2022/09/11 00:15:20;;;;;;;16.95;14.93;;;;;;;15.00;100.00;101655.31;5287032;28;20051;-69
2022/09/11 00:17:51;;;;;;;16.42;14.57;;;;;;;15.00;100.00;101652.69;5284812;28;20066;-69
2022/09/11 00:20:22;;;;;;;17.90;15.10;;;;;;;14.89;100.00;101642.28;5282494;28;20038;-69
2022/09/11 00:22:54;;;;;;;20.02;15.45;;;;;;;14.94;100.00;101649.75;5287059;28;20073;-70
2022/09/11 00:25:25;;;;;;;16.40;14.80;;;;;;;14.95;100.00;101657.53;5286819;28;20545;-69
2022/09/11 00:27:56;;;;;;;16.67;14.93;;;;;;;14.92;100.00;101660.44;5288772;28;20078;-70
2022/09/11 00:30:28;;;;;;;16.20;14.50;;;;;;;14.88;100.00;101658.22;5286304;28;20039;-70
2022/09/11 00:32:59;;;;;;;15.05;13.60;;;;;;;14.83;100.00;101666.56;5289804;28;20436;-70
2022/09/11 00:35:32;;;;;;;15.82;14.18;;;;;;;14.83;100.00;101662.09;5282958;28;20261;-70
2022/09/11 00:38:03;;;;;;;15.88;14.38;;;;;;;14.78;100.00;101659.06;5275289;28;20592;-70
2022/09/11 00:40:45;;;;;;;15.68;14.18;;;;;;;14.92;100.00;101670.16;5275442;28;20071;-70
2022/09/11 00:43:17;;;;;;;16.95;15.32;;;;;;;14.70;100.00;101666.84;5289080;28;20119;-70
2022/09/11 00:45:57;;;;;;;16.00;14.38;;;;;;;14.82;100.00;101671.00;5288574;28;20058;-70
2022/09/11 00:48:35;;;;;;;17.42;15.57;;;;;;;14.83;100.00;101675.31;5283296;28;20032;-70
2022/09/11 00:51:06;;;;;;;17.58;15.85;;;;;;;14.76;100.00;101675.97;5285760;28;20485;-71
2022/09/11 00:53:37;;;;;;;19.30;17.45;;;;;;;14.76;100.00;101670.72;5290682;28;20066;-69
2022/09/11 00:56:09;;;;;;;20.08;17.48;;;;;;;14.75;100.00;101667.25;5277003;28;20032;-70
2022/09/11 00:58:45;;;;;;;18.55;16.73;;;;;;;14.80;100.00;101677.38;5287363;28;20115;-70
2022/09/11 01:01:16;;;;;;;19.27;17.27;;;;;;;14.74;100.00;101668.22;5284965;28;20137;-70
2022/09/11 01:03:48;;;;;;;17.77;16.10;;;;;;;14.74;100.00;101670.03;5293517;28;20338;-69
2022/09/11 01:06:21;;;;;;;20.17;16.80;;;;;;;14.70;100.00;101682.66;5291378;28;20025;-69
2022/09/11 01:08:53;;;;;;;17.95;16.35;;;;;;;14.74;100.00;101684.03;5275033;28;20159;-70
2022/09/11 01:11:53;;;;;;;21.65;16.05;;;;;;;14.67;100.00;101690.84;5290074;28;20111;-70
2022/09/11 01:14:51;;;;;;;19.33;17.27;;;;;;;14.90;100.00;101691.41;5272109;28;20040;-70
2022/09/11 01:17:34;;;;;;;18.73;16.88;;;;;;;14.73;100.00;101689.44;5286431;28;20422;-70
2022/09/11 01:20:43;;;;;;;21.42;19.25;;;;;;;14.91;100.00;101684.34;5289508;28;20032;-70
2022/09/11 01:23:33;;;;;;;23.35;19.80;;;;;;;14.66;100.00;101681.25;5283903;28;20389;-70
2022/09/11 01:26:15;;;;;;;25.27;20.50;;;;;;;14.83;100.00;101680.56;5288525;28;20493;-70
2022/09/11 01:29:06;;;;;;;22.45;20.05;;;;;;;14.92;100.00;101678.06;5271390;28;20040;-71
2022/09/11 01:31:57;;;;;;;20.73;18.70;;;;;;;14.86;100.00;101676.84;5283167;28;20036;-69
2022/09/11 01:34:38;;;;;;;21.05;18.85;;;;;;;14.64;100.00;101677.09;5283768;28;20036;-71
2022/09/11 01:37:16;;;;;;;21.48;19.20;;;;;;;14.69;100.00;101688.03;5287317;28;20452;-70
2022/09/11 01:39:57;;;;;;;21.58;19.13;;;;;;;14.67;100.00;101679.47;5288303;28;20361;-70
2022/09/11 01:42:33;;;;;;;31.02;19.50;;;;;;;14.59;100.00;101680.13;5276104;28;20477;-71
2022/09/11 01:45:06;;;;;;;20.20;18.25;;;;;;;14.50;100.00;101691.47;5289962;28;20461;-70
2022/09/11 01:47:41;;;;;;;21.75;19.45;;;;;;;14.50;100.00;101687.03;5281530;28;20036;-70
2022/09/11 01:50:16;;;;;;;24.17;19.15;;;;;;;14.46;100.00;101696.16;5280677;28;20401;-69
2022/09/11 01:52:54;;;;;;;22.40;19.52;;;;;;;14.51;100.00;101695.81;5281502;28;20016;-69
2022/09/11 01:55:36;;;;;;;21.17;19.05;;;;;;;14.51;100.00;101688.72;5271802;28;20139;-69
2022/09/11 01:58:11;;;;;;;21.33;19.15;;;;;;;14.41;100.00;101692.25;5283155;28;20064;-69
2022/09/11 02:00:48;;;;;;;21.42;19.23;;;;;;;14.40;100.00;101696.72;5284272;28;20477;-71
2022/09/11 02:03:34;;;;;;;21.08;18.65;;;;;;;14.44;100.00;101692.00;5288099;28;20102;-70
2022/09/11 02:06:23;;;;;;;23.27;19.98;;;;;;;14.48;100.00;101696.03;5283003;28;20034;-70
2022/09/11 02:09:01;;;;;;;20.98;18.50;;;;;;;14.31;100.00;101676.41;5284413;28;20042;-70
2022/09/11 02:11:35;;;;;;;21.35;19.05;;;;;;;14.38;100.00;101697.81;5288168;28;20386;-70
2022/09/11 02:14:37;;;;;;;20.75;18.58;;;;;;;14.44;100.00;101702.56;5286313;28;20032;-70
2022/09/11 02:17:23;;;;;;;22.50;20.02;;;;;;;14.41;100.00;101702.81;5291522;28;20088;-70
2022/09/11 02:19:58;;;;;;;20.83;18.17;;;;;;;14.31;100.00;101698.31;5283337;28;20056;-70
2022/09/11 02:22:29;;;;;;;20.90;18.70;;;;;;;14.16;100.00;101697.03;5265862;28;20108;-70
2022/09/11 02:25:02;;;;;;;22.05;19.73;;;;;;;14.16;100.00;101698.81;5271459;28;20035;-70
2022/09/11 02:27:33;;;;;;;21.70;18.67;;;;;;;14.20;100.00;101710.75;5287254;28;20032;-70
2022/09/11 02:30:06;;;;;;;22.45;20.00;;;;;;;14.16;100.00;101712.00;5277301;28;20032;-70
2022/09/11 02:32:39;;;;;;;22.33;20.03;;;;;;;14.24;100.00;101709.53;5283429;28;20115;-70
2022/09/11 02:35:11;;;;;;;23.90;19.52;;;;;;;14.17;100.00;101709.25;5280033;28;20032;-70
2022/09/11 02:38:05;;;;;;;23.40;20.98;;;;;;;14.40;100.00;101701.16;5282491;28;20089;-70
2022/09/11 02:40:55;;;;;;;23.63;20.75;;;;;;;14.32;100.00;101705.28;5282808;28;20089;-70
2022/09/11 02:44:02;;;;;;;23.20;20.90;;;;;;;14.43;100.00;101709.59;5286392;28;20024;-70
2022/09/11 02:46:55;;;;;;;24.13;20.50;;;;;;;14.36;100.00;101704.06;5253965;28;20078;-70
2022/09/11 02:49:32;;;;;;;25.30;22.10;;;;;;;14.22;100.00;101714.94;5284213;28;20424;-70
2022/09/11 02:52:20;;;;;;;24.10;20.58;;;;;;;14.21;100.00;101708.03;5287681;28;20067;-70
2022/09/11 02:55:02;;;;;;;23.95;21.38;;;;;;;14.14;100.00;101712.16;5287355;28;20058;-70
2022/09/11 02:57:41;;;;;;;28.67;22.25;;;;;;;14.14;100.00;101709.50;5285168;28;20028;-70
2022/09/11 03:00:13;;;;;;;25.25;22.55;;;;;;;14.08;100.00;101712.66;5285619;28;20065;-70
2022/09/11 03:02:46;;;;;;;25.60;22.33;;;;;;;14.08;100.00;101716.13;5284303;28;20040;-70
2022/09/11 03:05:18;;;;;;;25.35;21.98;;;;;;;14.04;100.00;101717.34;5286767;28;20152;-70
2022/09/11 03:07:49;;;;;;;28.67;23.25;;;;;;;13.99;100.00;101703.75;5285459;28;20111;-70
2022/09/11 03:10:20;;;;;;;28.52;24.67;;;;;;;14.04;100.00;101721.78;5285117;28;20036;-70
2022/09/11 03:12:53;;;;;;;46.95;25.88;;;;;;;14.08;100.00;101729.31;5284988;28;20489;-70
2022/09/11 03:15:25;;;;;;;50.22;25.88;;;;;;;14.07;100.00;101732.91;5293701;28;20035;-70
2022/09/11 03:17:57;;;;;;;114.60;27.42;;;;;;;14.10;100.00;101729.19;5285210;28;20635;-70
2022/09/11 03:20:28;;;;;;;130.05;25.80;;;;;;;14.05;100.00;101718.19;5282346;28;20171;-70
2022/09/11 03:22:59;;;;;;;86.95;25.77;;;;;;;14.09;100.00;101728.34;5283356;28;20073;-70
2022/09/11 03:25:31;;;;;;;62.28;23.48;;;;;;;14.13;100.00;101728.94;5286988;28;20033;-70
2022/09/11 03:28:03;;;;;;;87.80;21.85;;;;;;;14.10;100.00;101724.75;5287817;28;20020;-70
2022/09/11 03:30:35;;;;;;;97.88;21.40;;;;;;;14.15;100.00;101724.34;5280072;28;20032;-70
2022/09/11 03:33:07;;;;;;;92.50;20.30;;;;;;;14.13;100.00;101726.28;5286060;28;20036;-70
2022/09/11 03:35:38;;;;;;;55.60;17.42;;;;;;;14.12;100.00;101724.59;5283318;28;20234;-70
2022/09/11 03:38:10;;;;;;;44.47;17.08;;;;;;;14.15;100.00;101726.16;5284367;28;20043;-70
2022/09/11 03:40:43;;;;;;;107.38;18.60;;;;;;;14.13;100.00;101728.94;5286730;28;20036;-70
2022/09/11 03:43:15;;;;;;;80.90;18.05;;;;;;;14.14;100.00;101727.13;5287919;28;20862;-70
2022/09/11 03:45:53;;;;;;;74.88;17.02;;;;;;;14.20;100.00;101735.31;5287702;28;20347;-70
2022/09/11 03:48:24;;;;;;;38.75;15.75;;;;;;;14.09;100.00;101736.25;5277840;28;20040;-70
2022/09/11 03:50:57;;;;;;;70.80;16.00;;;;;;;14.06;100.00;101743.59;5288414;28;20028;-70
2022/09/11 03:53:31;;;;;;;68.95;16.27;;;;;;;14.08;100.00;101731.94;5286854;28;20090;-70
2022/09/11 03:56:03;;;;;;;81.63;15.50;;;;;;;14.00;100.00;101728.28;5284797;28;20038;-70
2022/09/11 03:58:36;;;;;;;87.80;17.93;;;;;;;14.00;100.00;101730.94;5284809;28;20072;-70
2022/09/11 04:01:09;;;;;;;74.43;15.30;;;;;;;14.00;100.00;101725.66;5279164;28;20028;-70
2022/09/11 04:03:41;;;;;;;54.97;15.52;;;;;;;13.93;100.00;101730.59;5278860;28;20524;-70
2022/09/11 04:06:12;;;;;;;46.08;14.73;;;;;;;13.94;100.00;101734.06;5284980;28;20048;-70
2022/09/11 04:08:44;;;;;;;30.45;12.90;;;;;;;13.97;100.00;101724.09;5291134;28;20036;-70
2022/09/11 04:11:15;;;;;;;50.60;13.90;;;;;;;14.04;100.00;101727.91;5287485;28;20036;-70
2022/09/11 04:13:46;;;;;;;26.38;13.13;;;;;;;13.98;100.00;101722.31;5287729;28;20373;-70
2022/09/11 04:16:18;;;;;;;43.10;14.20;;;;;;;13.98;100.00;101728.44;5286207;28;20032;-70
2022/09/11 04:18:52;;;;;;;46.20;14.68;;;;;;;13.97;100.00;101731.19;5283905;28;20028;-70
2022/09/11 04:21:23;;;;;;;42.95;15.02;;;;;;;13.95;100.00;101736.59;5292117;28;20027;-70
2022/09/11 04:23:56;;;;;;;30.38;14.98;;;;;;;13.99;100.00;101734.53;5288677;28;20021;-70
2022/09/11 04:26:30;;;;;;;30.15;14.73;;;;;;;14.02;100.00;101740.38;5286140;28;20123;-70
2022/09/11 04:29:02;;;;;;;23.23;13.80;;;;;;;14.04;100.00;101729.69;5289009;28;20034;-70
2022/09/11 04:31:34;;;;;;;24.85;14.02;;;;;;;14.01;100.00;101727.31;5288420;28;20024;-70
2022/09/11 04:34:06;;;;;;;37.83;13.80;;;;;;;13.97;100.00;101725.91;5288159;28;20096;-70
2022/09/11 04:36:37;;;;;;;61.05;15.40;;;;;;;13.94;100.00;101734.94;5289466;28;20025;-70
2022/09/11 04:39:09;;;;;;;38.15;14.80;;;;;;;13.93;100.00;101727.97;5286552;28;20157;-70
2022/09/11 04:41:41;;;;;;;37.20;14.90;;;;;;;13.95;100.00;101739.22;5284116;28;20039;-70
2022/09/11 04:44:13;;;;;;;55.85;15.95;;;;;;;13.93;100.00;101727.16;5276108;28;20044;-70
2022/09/11 04:46:44;;;;;;;54.75;16.77;;;;;;;13.93;100.00;101735.03;5285257;28;20688;-70
2022/09/11 04:49:15;;;;;;;54.97;17.20;;;;;;;13.93;100.00;101746.41;5289112;28;20108;-70
2022/09/11 04:51:47;;;;;;;39.75;16.15;;;;;;;13.97;100.00;101744.34;5284266;28;20028;-70
2022/09/11 04:54:22;;;;;;;56.88;17.15;;;;;;;13.94;100.00;101747.25;5292456;28;20032;-70
2022/09/11 04:56:53;;;;;;;65.35;17.13;;;;;;;13.93;100.00;101745.59;5290381;28;20027;-70
2022/09/11 04:59:25;;;;;;;30.10;15.85;;;;;;;13.95;100.00;101749.78;5287277;28;20038;-70
2022/09/11 05:01:56;;;;;;;52.58;16.73;;;;;;;13.94;100.00;101747.25;5284345;28;20071;-70
2022/09/11 05:04:27;;;;;;;46.95;15.57;;;;;;;13.81;100.00;101735.13;5286375;28;20021;-70
2022/09/11 05:06:59;;;;;;;38.28;15.05;;;;;;;13.80;100.00;101736.09;5290916;28;20028;-70
2022/09/11 05:09:30;;;;;;;33.47;15.13;;;;;;;13.82;100.00;101739.41;5284534;28;20051;-70
2022/09/11 05:12:02;;;;;;;50.65;15.27;;;;;;;13.79;100.00;101746.75;5288217;28;20043;-70
2022/09/11 05:14:34;;;;;;;36.08;15.60;;;;;;;13.83;100.00;101749.00;5285767;28;20103;-70
2022/09/11 05:17:06;;;;;;;22.90;13.85;;;;;;;13.85;100.00;101757.59;5282383;28;20439;-70
2022/09/11 05:19:37;;;;;;;32.75;14.30;;;;;;;13.82;100.00;101760.47;5286351;28;20031;-70
2022/09/11 05:22:08;;;;;;;49.20;15.80;;;;;;;13.83;100.00;101769.25;5290177;28;20051;-70
2022/09/11 05:24:39;;;;;;;35.40;14.30;;;;;;;13.81;100.00;101773.78;5285465;28;20173;-70
2022/09/11 05:27:12;;;;;;;53.63;14.32;;;;;;;13.73;100.00;101777.06;5286165;28;20036;-70
2022/09/11 05:29:44;;;;;;;;;;;;;;;14.40;100.00;101774.97;5283739;28;20028;-70
2022/09/11 05:32:15;;;;;;;23.38;11.77;;;;;;;13.82;100.00;101786.81;5287826;28;19961;-70
2022/09/11 05:34:47;;;;;;;26.83;12.93;;;;;;;13.81;100.00;101797.50;5287728;28;20027;-70
2022/09/11 05:37:18;;;;;;;21.27;13.05;;;;;;;13.78;100.00;101803.03;5288397;28;20040;-70
2022/09/11 05:39:50;;;;;;;32.58;13.02;;;;;;;13.71;100.00;101804.47;5284890;28;20186;-70
2022/09/11 05:42:22;;;;;;;20.83;12.27;;;;;;;13.74;100.00;101805.06;5285841;28;20775;-70
2022/09/11 05:44:53;;;;;;;35.72;12.68;;;;;;;13.66;100.00;101798.78;5286825;28;20024;-70
2022/09/11 05:47:24;;;;;;;17.92;12.07;;;;;;;13.71;100.00;101807.94;5281948;28;20108;-70
2022/09/11 05:49:56;;;;;;;25.58;13.25;;;;;;;13.56;100.00;101796.91;5285853;28;20028;-70
2022/09/11 05:52:29;;;;;;;24.42;12.57;;;;;;;13.74;100.00;101820.03;5287313;28;20033;-70
2022/09/11 05:55:00;;;;;;;16.52;12.57;;;;;;;13.73;100.00;101824.47;5289426;28;20055;-70
2022/09/11 05:57:31;;;;;;;22.05;12.43;;;;;;;13.69;100.00;101825.69;5286746;28;20032;-70
2022/09/11 06:00:04;;;;;;;13.65;11.93;;;;;;;13.75;100.00;101838.38;5286104;28;20071;-69
2022/09/11 06:02:35;;;;;;;15.90;11.23;;;;;;;13.76;100.00;101829.50;5279052;28;20846;-70
2022/09/11 06:05:07;;;;;;;23.05;11.82;;;;;;;13.72;100.00;101832.50;5283628;28;20078;-71
2022/09/11 06:07:39;;;;;;;15.68;11.27;;;;;;;13.77;100.00;101833.78;5279309;28;20115;-70
2022/09/11 06:10:10;;;;;;;19.02;11.55;;;;;;;13.85;100.00;101826.09;5281603;28;20031;-71
2022/09/11 06:12:41;;;;;;;17.17;12.48;;;;;;;13.84;100.00;101840.22;5280389;28;20465;-69
2022/09/11 06:15:13;;;;;;;41.33;12.55;;;;;;;13.84;100.00;101837.59;5281380;28;20032;-70
2022/09/11 06:17:44;;;;;;;49.10;12.85;;;;;;;13.88;100.00;101840.81;5282298;28;20141;-69
2022/09/11 06:20:16;;;;;;;32.35;12.32;;;;;;;13.91;100.00;101842.38;5286021;28;20046;-70
2022/09/11 06:22:47;;;;;;;40.88;12.57;;;;;;;13.96;100.00;101837.53;5276896;28;20027;-70
2022/09/11 06:25:18;;;;;;;75.75;14.55;;;;;;;13.90;100.00;101853.84;5279689;28;20031;-69
2022/09/11 06:27:49;;;;;;;56.92;13.23;;;;;;;13.97;100.00;101852.38;5270628;28;20382;-71
2022/09/11 06:30:21;;;;;;;57.90;13.55;;;;;;;14.02;100.00;101852.84;5276307;28;21017;-71
2022/09/11 06:32:55;;;;;;;49.08;12.70;;;;;;;14.03;100.00;101851.88;5278146;28;20582;-70
2022/09/11 06:35:27;;;;;;;54.88;12.93;;;;;;;14.08;100.00;101858.41;5280204;28;20025;-70
2022/09/11 06:37:58;;;;;;;50.78;13.43;;;;;;;14.07;100.00;101859.38;5275735;28;20389;-70
2022/09/11 06:40:29;;;;;;;42.72;12.75;;;;;;;14.15;100.00;101865.81;5276786;28;20033;-71
2022/09/11 06:43:01;;;;;;;45.88;13.00;;;;;;;14.21;100.00;101862.69;5285058;28;20028;-70
2022/09/11 06:45:32;;;;;;;48.40;13.15;;;;;;;14.20;100.00;101858.34;5278192;28;20032;-69
2022/09/11 06:48:04;;;;;;;76.88;14.60;;;;;;;14.20;100.00;101855.72;5282500;28;20032;-70
2022/09/11 06:50:39;;;;;;;32.10;14.52;;;;;;;14.29;100.00;101863.69;5282751;28;20054;-70
2022/09/11 06:53:13;;;;;;;65.03;15.40;;;;;;;14.35;100.00;101871.06;5282931;28;20051;-71
2022/09/11 06:55:44;;;;;;;36.20;13.63;;;;;;;14.43;100.00;101870.44;5288702;28;20023;-70
2022/09/11 06:58:15;;;;;;;46.50;14.55;;;;;;;14.51;100.00;101875.09;5278400;28;20027;-71
2022/09/11 07:00:47;;;;;;;66.40;13.90;;;;;;;14.56;100.00;101875.53;5285857;28;20085;-69
2022/09/11 07:03:18;;;;;;;61.22;14.77;;;;;;;14.56;100.00;101880.81;5281300;28;20047;-70
2022/09/11 07:05:50;;;;;;;45.85;14.07;;;;;;;14.64;100.00;101873.09;5278134;28;20151;-70
2022/09/11 07:08:21;;;;;;;73.13;14.38;;;;;;;14.71;100.00;101870.75;5280207;28;20024;-72
2022/09/11 07:10:53;;;;;;;72.22;14.55;;;;;;;14.80;100.00;101876.06;5283337;28;20370;-72
2022/09/11 07:13:24;;;;;;;94.50;15.45;;;;;;;14.79;100.00;101871.75;5286985;28;20156;-72
2022/09/11 07:16:00;;;;;;;114.20;16.08;;;;;;;14.94;100.00;101866.13;5281296;28;20280;-70
2022/09/11 07:18:36;;;;;;;37.60;14.55;;;;;;;15.01;100.00;101864.63;5281167;28;20031;-74
2022/09/11 07:21:13;;;;;;;43.15;14.23;;;;;;;15.05;100.00;101864.22;5276063;28;20021;-71
2022/09/11 07:23:47;;;;;;;80.40;15.30;;;;;;;15.02;100.00;101872.41;5284335;28;20036;-71
2022/09/11 07:26:19;;;;;;;51.67;15.43;;;;;;;15.15;100.00;101871.31;5283057;28;20046;-71
2022/09/11 07:28:51;;;;;;;44.30;14.43;;;;;;;15.21;100.00;101857.59;5282425;28;20028;-71
2022/09/11 07:31:28;;;;;;;51.42;14.55;;;;;;;15.34;100.00;101868.72;5281836;28;20260;-70
2022/09/11 07:34:01;;;;;;;80.97;16.13;;;;;;;15.28;100.00;101870.13;5271277;28;20057;-74
2022/09/11 07:36:34;;;;;;;49.83;15.93;;;;;;;15.39;100.00;101870.97;5288360;28;20028;-71
2022/09/11 07:39:05;;;;;;;43.53;15.57;;;;;;;15.51;100.00;101870.72;5280072;28;20024;-72
2022/09/11 07:41:36;;;;;;;63.28;15.82;;;;;;;15.56;100.00;101873.75;5284697;28;20016;-71
2022/09/11 07:44:08;;;;;;;56.05;15.73;;;;;;;15.63;100.00;101868.78;5294056;28;20023;-71
2022/09/11 07:46:40;;;;;;;52.72;15.52;;;;;;;15.74;100.00;101866.03;5288169;28;20031;-70
2022/09/11 07:49:11;;;;;;;45.97;16.00;;;;;;;15.82;100.00;101857.41;5289640;28;20108;-71
2022/09/11 07:51:43;;;;;;;59.63;16.42;;;;;;;15.82;100.00;101863.53;5289902;28;20028;-71
2022/09/11 07:54:14;;;;;;;28.50;16.40;;;;;;;15.95;100.00;101868.53;5278808;28;20120;-73
2022/09/11 07:56:45;;;;;;;28.67;16.13;;;;;;;16.07;100.00;101868.41;5285449;28;20032;-71
2022/09/11 07:59:17;;;;;;;22.98;17.27;;;;;;;16.15;100.00;101874.63;5279832;28;20051;-71
2022/09/11 08:01:49;;;;;;;30.35;16.88;;;;;;;16.16;100.00;101875.47;5283155;28;20080;-71
2022/09/11 08:04:20;;;;;;;19.83;17.43;;;;;;;16.30;100.00;101875.84;5281874;28;20024;-72
2022/09/11 08:06:51;;;;;;;28.55;19.15;;;;;;;16.39;100.00;101882.09;5291492;28;20077;-72
2022/09/11 08:09:25;;;;;;;20.33;17.60;;;;;;;16.53;100.00;101875.53;5287151;28;20024;-71
2022/09/11 08:11:57;;;;;;;20.67;18.58;;;;;;;16.57;100.00;101887.47;5283006;28;20032;-72
2022/09/11 08:14:30;;;;;;;20.23;17.50;;;;;;;16.62;100.00;101892.34;5289866;28;20028;-72
2022/09/11 08:17:01;;;;;;;20.60;17.73;;;;;;;16.69;100.00;101886.31;5291807;28;20024;-72
2022/09/11 08:19:32;;;;;;;21.83;19.70;;;;;;;16.86;100.00;101887.44;5288408;28;20549;-72
2022/09/11 08:22:03;;;;;;;25.25;19.45;;;;;;;16.90;100.00;101890.63;5283632;28;20028;-72
2022/09/11 08:24:35;;;;;;;21.83;19.52;;;;;;;17.02;100.00;101894.72;5286952;28;20032;-72
2022/09/11 08:27:06;;;;;;;21.80;19.75;;;;;;;17.13;100.00;101894.53;5285023;28;20025;-72
2022/09/11 08:29:37;;;;;;;23.63;21.30;;;;;;;17.12;100.00;101903.47;5285027;28;20449;-72
2022/09/11 08:32:08;;;;;;;22.98;20.60;;;;;;;17.27;100.00;101909.94;5281201;28;20444;-72
2022/09/11 08:34:40;;;;;;;24.33;21.92;;;;;;;17.34;100.00;101911.97;5285587;28;20484;-72
2022/09/11 08:37:11;;;;;;;22.90;20.58;;;;;;;17.38;100.00;101908.06;5283465;28;20058;-73
2022/09/11 08:39:42;;;;;;;24.65;22.05;;;;;;;17.47;100.00;101909.81;5288428;28;20031;-72
2022/09/11 08:42:15;;;;;;;23.88;21.38;;;;;;;17.51;100.00;101903.25;5285566;28;20027;-72
2022/09/11 08:44:51;;;;;;;23.23;21.02;;;;;;;17.64;100.00;101906.34;5286953;28;20027;-72
2022/09/11 08:47:30;;;;;;;25.08;22.67;;;;;;;17.65;100.00;101904.53;5287337;28;20036;-71
2022/09/11 08:50:05;;;;;;;25.63;23.13;;;;;;;17.77;100.00;101913.13;5286717;28;20036;-71
2022/09/11 08:52:36;;;;;;;25.45;22.98;;;;;;;17.82;100.00;101911.69;5290077;28;20513;-72
2022/09/11 08:55:16;;;;;;;25.35;22.95;;;;;;;18.12;100.00;101917.59;5288815;28;20036;-72
2022/09/11 08:57:59;;;;;;;24.60;22.10;;;;;;;18.07;100.00;101915.41;5286922;28;20154;-72
2022/09/11 09:00:36;;;;;;;;;;;;;;;18.64;100.00;101914.97;5286572;28;20511;-72
2022/09/11 09:03:22;;;;;;;24.23;21.92;;;;;;;18.10;100.00;101916.91;5293178;28;19920;-72
2022/09/11 09:06:13;;;;;;;25.90;23.42;;;;;;;18.14;100.00;101913.78;5284401;28;20074;-72
2022/09/11 09:09:02;;;;;;;25.55;23.15;;;;;;;18.17;100.00;101916.13;5288946;28;20085;-72
2022/09/11 09:11:46;;;;;;;26.90;24.30;;;;;;;18.39;100.00;101913.97;5284594;28;20024;-72
2022/09/11 09:14:35;;;;;;;;;;;;;;;19.01;100.00;101917.34;5285149;28;20024;-72
2022/09/11 09:17:34;;;;;;;24.17;21.75;;;;;;;18.71;100.00;101919.53;5265268;28;20374;-72
2022/09/11 09:20:22;;;;;;;27.05;24.42;;;;;;;18.87;100.00;101915.31;5287457;28;20486;-72
2022/09/11 09:23:17;;;;;;;25.88;23.38;;;;;;;18.99;100.00;101926.47;5287525;28;20029;-72
2022/09/11 09:25:51;;;;;;;25.05;22.67;;;;;;;19.06;100.00;101925.69;5283244;28;20036;-72
2022/09/11 09:28:31;;;;;;;26.20;23.73;;;;;;;19.25;100.00;101926.41;5284961;28;20032;-72
2022/09/11 09:31:07;;;;;;;25.75;23.25;;;;;;;19.19;100.00;101923.41;5283213;28;20050;-72
2022/09/11 09:33:48;;;;;;;25.65;23.00;;;;;;;19.24;100.00;101933.53;5284098;28;20060;-72
2022/09/11 09:36:26;;;;;;;25.55;23.05;;;;;;;19.42;100.00;101926.28;5289880;28;20032;-72
2022/09/11 09:38:58;;;;;;;23.98;21.88;;;;;;;19.57;100.00;101931.81;5282896;28;20021;-72
2022/09/11 09:42:01;;;;;;;22.13;20.13;;;;;;;19.95;100.00;101934.06;5287613;28;20020;-72
2022/09/11 09:45:10;;;;;;;23.77;21.70;;;;;;;20.16;100.00;101929.09;5288869;28;20032;-72
2022/09/11 09:47:43;;;;;;;21.30;19.25;;;;;;;20.15;100.00;101933.59;5283639;28;20578;-72
2022/09/11 09:50:30;;;;;;;19.73;17.92;;;;;;;20.48;100.00;101930.88;5285705;28;20028;-72
2022/09/11 09:53:31;;;;;;;21.25;19.35;;;;;;;20.77;100.00;101932.19;5287722;28;20032;-72
2022/09/11 09:56:04;;;;;;;20.98;19.17;;;;;;;20.57;100.00;101931.72;5249403;28;20107;-72
2022/09/11 09:58:42;;;;;;;22.40;20.40;;;;;;;20.87;100.00;101931.00;5285438;28;20032;-72
2022/09/11 10:01:46;;;;;;;22.95;20.65;;;;;;;21.28;100.00;101927.34;5284360;28;20021;-72
2022/09/11 10:04:21;;;;;;;20.33;18.58;;;;;;;21.10;100.00;101943.56;5286104;28;20036;-72
2022/09/11 10:07:05;;;;;;;20.80;18.92;;;;;;;21.33;100.00;101933.03;5286730;28;20476;-72
2022/09/11 10:09:46;;;;;;;20.30;18.35;;;;;;;21.24;100.00;101931.34;5282771;28;20028;-72
2022/09/11 10:12:23;;;;;;;19.40;17.75;;;;;;;21.13;100.00;101941.38;5281694;28;20390;-71
2022/09/11 10:14:59;;;;;;;18.88;17.30;;;;;;;21.07;100.00;101936.75;5290985;28;21131;-71
2022/09/11 10:17:32;;;;;;;19.92;18.10;;;;;;;20.83;100.00;101942.16;5290014;28;20400;-71
2022/09/11 10:20:17;;;;;;;19.20;17.48;;;;;;;20.97;100.00;101941.44;5283833;28;20039;-72
2022/09/11 10:22:49;;;;;;;19.33;17.58;;;;;;;20.77;100.00;101933.03;5281144;28;20465;-72
2022/09/11 10:25:25;;;;;;;19.98;18.17;;;;;;;20.63;100.00;101936.38;5283313;28;20099;-72
2022/09/11 10:28:16;;;;;;;20.02;18.23;;;;;;;20.92;100.00;101933.16;5285599;28;20039;-72
2022/09/11 10:30:52;;;;;;;20.85;18.85;;;;;;;20.85;100.00;101937.50;5282234;28;20107;-71
2022/09/11 10:33:40;;;;;;;19.75;17.75;;;;;;;21.16;100.00;101934.06;5283885;28;20068;-71
2022/09/11 10:36:12;;;;;;;19.27;17.58;;;;;;;21.18;100.00;101934.72;5286328;28;20401;-71
2022/09/11 10:38:43;;;;;;;21.13;19.13;;;;;;;21.21;100.00;101934.34;5282982;28;20036;-71
2022/09/11 10:41:25;;;;;;;18.50;16.77;;;;;;;21.68;100.00;101934.31;5281202;28;20032;-71
2022/09/11 10:44:00;;;;;;;17.10;15.53;;;;;;;21.93;100.00;101931.44;5280257;28;20450;-71
2022/09/11 10:46:37;;;;;;;16.95;15.40;;;;;;;21.98;100.00;101929.09;5279949;28;20833;-71
2022/09/11 10:49:15;;;;;;;16.17;14.73;;;;;;;22.13;100.00;101935.31;5286045;28;20063;-71
2022/09/11 10:52:15;;;;;;;16.10;14.77;;;;;;;22.43;100.00;101924.75;5282029;28;20029;-71
2022/09/11 10:54:52;;;;;;;11.18;10.23;;;;;;;22.61;100.00;101927.88;5286415;28;20020;-71
2022/09/11 10:57:54;;;;;;;11.98;10.55;;;;;;;23.07;100.00;101927.72;5280572;28;20484;-71
2022/09/11 11:00:30;;;;;;;11.65;10.65;;;;;;;22.91;100.00;101927.88;5279361;28;20045;-71
2022/09/11 11:03:11;;;;;;;12.23;11.10;;;;;;;22.85;100.00;101931.31;5279808;28;20075;-71
2022/09/11 11:06:20;;;;;;;12.25;10.95;;;;;;;23.19;100.00;101928.06;5283792;28;20481;-72
2022/09/11 11:09:20;;;;;;;13.68;12.38;;;;;;;22.83;100.00;101928.78;5279357;28;21005;-71
2022/09/11 11:12:10;;;;;;;12.50;11.40;;;;;;;22.82;100.00;101927.16;5279262;28;20024;-71
2022/09/11 11:14:57;;;;;;;13.68;12.40;;;;;;;22.55;100.00;101931.28;5284730;28;20389;-71
2022/09/11 11:17:30;;;;;;;14.63;13.32;;;;;;;22.02;100.00;101933.91;5285224;28;20020;-71
2022/09/11 11:20:02;;;;;;;;;;;;;;;22.96;100.00;101931.69;5280478;28;20119;-71
2022/09/11 11:23:04;;;;;;;15.75;14.25;;;;;;;22.28;100.00;101935.38;5283289;28;20006;-72
2022/09/11 11:26:05;;;;;;;16.60;15.00;;;;;;;22.17;100.00;101933.97;5273605;28;20031;-71
2022/09/11 11:28:42;;;;;;;15.98;14.48;;;;;;;21.69;100.00;101935.97;5280177;28;20178;-72
2022/09/11 11:31:33;;;;;;;15.65;14.15;;;;;;;22.09;100.00;101924.16;5287214;28;20036;-71
2022/09/11 11:34:22;;;;;;;13.07;11.98;;;;;;;22.08;100.00;101927.81;5282717;28;20047;-71
2022/09/11 11:37:16;;;;;;;13.73;12.32;;;;;;;21.97;100.00;101927.41;5278890;28;20315;-71
2022/09/11 11:40:00;;;;;;;12.70;11.48;;;;;;;21.98;100.00;101935.25;5279172;28;20031;-71
2022/09/11 11:42:40;;;;;;;12.48;11.27;;;;;;;22.28;100.00;101930.03;5274033;28;20125;-71